createdAt,value
2023-04-24T00:00:48.096Z,10.88
2023-04-24T00:04:48.039Z,10.83
2023-04-24T00:08:46.045Z,10.79
2023-04-24T00:12:43.990Z,10.73
2023-04-24T00:16:42.010Z,10.69
2023-04-24T00:20:40.004Z,10.66
2023-04-24T00:24:37.988Z,10.69
2023-04-24T00:28:35.947Z,10.72
2023-04-24T00:32:33.993Z,10.75
2023-04-24T00:36:31.970Z,10.79
2023-04-24T00:40:29.972Z,10.80
2023-04-24T00:44:27.939Z,10.78
2023-04-24T00:48:26.961Z,10.75
2023-04-24T00:52:24.967Z,10.73
2023-04-24T00:56:23.004Z,10.70
2023-04-24T01:00:21.923Z,10.64
2023-04-24T01:04:20.187Z,10.58
2023-04-24T01:08:19.909Z,10.51
2023-04-24T01:12:20.104Z,10.45
2023-04-24T01:16:17.984Z,10.41
2023-04-24T01:20:15.903Z,10.37
2023-04-24T01:24:13.897Z,10.34
2023-04-24T01:28:11.894Z,10.30
2023-04-24T01:32:10.902Z,10.26
2023-04-24T01:36:09.885Z,10.24
2023-04-24T01:40:07.871Z,10.20
2023-04-24T01:44:05.934Z,10.17
2023-04-24T01:48:04.904Z,10.16
2023-04-24T01:52:03.117Z,10.13
2023-04-24T01:56:00.872Z,10.09
2023-04-24T01:59:58.972Z,10.05
2023-04-24T02:04:03.922Z,10.03
2023-04-24T02:08:01.989Z,10.03
2023-04-24T02:12:02.902Z,10.01
2023-04-24T02:16:00.982Z,9.99
2023-04-24T02:19:58.821Z,9.95
2023-04-24T02:23:56.953Z,9.93
2023-04-24T02:27:54.833Z,9.91
2023-04-24T02:31:52.949Z,9.88
2023-04-24T02:35:50.837Z,9.86
2023-04-24T02:39:48.823Z,9.85
2023-04-24T02:43:46.780Z,9.84
2023-04-24T02:47:44.903Z,9.83
2023-04-24T02:51:42.779Z,9.81
2023-04-24T02:55:40.807Z,9.81
2023-04-24T02:59:39.905Z,9.80
2023-04-24T03:03:37.958Z,9.82
2023-04-24T03:07:35.785Z,9.83
2023-04-24T03:11:33.860Z,9.85
2023-04-24T03:15:32.814Z,9.87
2023-04-24T03:19:30.865Z,9.89
2023-04-24T03:23:32.726Z,9.94
2023-04-24T03:27:30.790Z,9.98
2023-04-24T03:31:32.778Z,10.03
2023-04-24T03:35:30.824Z,10.10
2023-04-24T03:39:32.774Z,10.20
2023-04-24T03:43:30.856Z,10.48
2023-04-24T03:47:29.896Z,11.26
2023-04-24T03:51:30.768Z,12.16
2023-04-24T03:55:40.732Z,12.56
2023-04-24T03:59:38.841Z,12.53
2023-04-24T04:03:40.896Z,12.34
2023-04-24T04:07:39.760Z,12.18
2023-04-24T04:11:37.695Z,12.06
2023-04-24T04:15:36.896Z,12.07
2023-04-24T04:19:34.789Z,12.42
2023-04-24T04:23:32.755Z,12.60
2023-04-24T04:27:39.677Z,12.59
2023-04-24T04:31:37.793Z,12.64
2023-04-24T04:35:36.669Z,13.19
2023-04-24T04:39:35.738Z,13.72
2023-04-24T04:43:38.725Z,14.42
2023-04-24T04:47:39.711Z,16.47
2023-04-24T04:51:37.659Z,18.06
2023-04-24T04:55:36.686Z,19.22
2023-04-24T04:59:39.698Z,19.02
2023-04-24T05:03:41.758Z,18.49
2023-04-24T05:07:40.641Z,17.96
2023-04-24T05:11:39.686Z,17.43
2023-04-24T05:15:37.628Z,16.99
2023-04-24T05:19:35.752Z,16.73
2023-04-24T05:23:33.681Z,16.56
2023-04-24T05:27:31.666Z,16.39
2023-04-24T05:31:32.748Z,16.11
2023-04-24T05:35:30.698Z,16.07
2023-04-24T05:39:28.675Z,16.24
2023-04-24T05:43:26.648Z,16.30
2023-04-24T05:47:24.639Z,16.37
2023-04-24T05:51:22.702Z,16.41
2023-04-24T05:55:20.686Z,16.44
2023-04-24T05:59:18.659Z,16.49
2023-04-24T06:02:56.716Z,16.52
2023-04-24T06:06:21.393Z,16.59
2023-04-24T06:09:45.624Z,16.72
2023-04-24T06:13:09.696Z,16.88
2023-04-24T06:16:36.112Z,17.02
2023-04-24T06:20:07.269Z,17.17
2023-04-24T06:23:33.676Z,17.31
2023-04-24T06:26:58.354Z,17.33
2023-04-24T06:30:22.118Z,17.40
2023-04-24T06:33:46.049Z,17.52
2023-04-24T06:37:09.896Z,17.65
2023-04-24T06:40:34.588Z,17.69
2023-04-24T06:43:58.716Z,17.66
2023-04-24T06:47:22.707Z,17.69
2023-04-24T06:50:48.112Z,17.76
2023-04-24T06:54:12.272Z,17.83
2023-04-24T06:57:36.143Z,17.83
2023-04-24T07:01:00.003Z,17.83
2023-04-24T07:04:26.347Z,17.87
2023-04-24T07:07:52.373Z,17.88
2023-04-24T07:11:16.784Z,17.95
2023-04-24T07:14:41.995Z,18.08
2023-04-24T07:18:06.090Z,18.18
2023-04-24T07:21:30.102Z,18.24
2023-04-24T07:24:53.938Z,18.31
2023-04-24T07:28:19.075Z,18.43
2023-04-24T07:31:43.176Z,18.54
2023-04-24T07:35:07.846Z,18.63
2023-04-24T07:38:32.607Z,18.72
2023-04-24T07:41:56.542Z,18.82
2023-04-24T07:45:20.477Z,18.91
2023-04-24T07:48:44.479Z,19.00
2023-04-24T07:52:08.768Z,19.10
2023-04-24T07:55:32.862Z,19.19
2023-04-24T07:58:56.724Z,19.26
2023-04-24T08:02:22.908Z,19.31
2023-04-24T08:05:47.232Z,19.38
2023-04-24T08:09:11.341Z,19.49
2023-04-24T08:12:35.522Z,19.56
2023-04-24T08:15:59.416Z,19.62
2023-04-24T08:19:23.605Z,19.68
2023-04-24T08:22:48.357Z,19.70
2023-04-24T08:26:12.808Z,19.77
2023-04-24T08:29:36.644Z,19.84
2023-04-24T08:33:00.579Z,19.92
2023-04-24T08:36:30.435Z,20.01
2023-04-24T08:40:00.275Z,20.09
2023-04-24T08:43:25.385Z,20.19
2023-04-24T08:46:52.427Z,20.23
2023-04-24T08:50:17.269Z,20.30
2023-04-24T08:53:42.360Z,20.34
2023-04-24T08:57:12.618Z,20.39
2023-04-24T09:00:36.590Z,20.44
2023-04-24T09:04:05.996Z,20.53
2023-04-24T09:07:32.438Z,20.63
2023-04-24T09:10:58.523Z,20.69
2023-04-24T09:14:24.719Z,20.72
2023-04-24T09:17:49.303Z,20.76
2023-04-24T09:21:13.869Z,20.79
2023-04-24T09:24:37.744Z,20.85
2023-04-24T09:28:07.934Z,20.93
2023-04-24T09:31:32.249Z,21.02
2023-04-24T09:35:14.067Z,21.12
2023-04-24T09:38:39.603Z,21.19
2023-04-24T09:42:03.467Z,21.21
2023-04-24T09:45:37.631Z,21.22
2023-04-24T09:49:22.410Z,21.28
2023-04-24T09:52:49.145Z,21.35
2023-04-24T09:56:14.215Z,21.40
2023-04-24T09:59:45.155Z,21.43
2023-04-24T10:03:09.457Z,21.50
2023-04-24T10:06:37.204Z,21.61
2023-04-24T10:10:01.589Z,21.69
2023-04-24T10:13:25.889Z,21.75
2023-04-24T10:16:50.657Z,21.82
2023-04-24T10:20:14.888Z,21.88
2023-04-24T10:23:39.745Z,21.92
2023-04-24T10:27:05.002Z,21.92
2023-04-24T10:30:36.348Z,21.97
2023-04-24T10:34:02.063Z,22.07
2023-04-24T10:37:27.975Z,22.20
2023-04-24T10:40:51.945Z,22.36
2023-04-24T10:44:17.360Z,22.47
2023-04-24T10:47:45.473Z,22.56
2023-04-24T10:51:14.122Z,22.59
2023-04-24T10:54:44.286Z,22.53
2023-04-24T10:58:08.171Z,22.42
2023-04-24T11:01:34.369Z,22.41
2023-04-24T11:04:58.397Z,22.60
2023-04-24T11:08:31.510Z,22.82
2023-04-24T11:12:15.474Z,22.94
2023-04-24T11:15:39.261Z,23.21
2023-04-24T11:19:05.034Z,23.49
2023-04-24T11:22:34.350Z,23.80
2023-04-24T11:26:15.422Z,23.93
2023-04-24T11:29:43.923Z,24.09
2023-04-24T11:33:08.363Z,24.24
2023-04-24T11:36:33.778Z,24.21
2023-04-24T11:40:00.796Z,24.09
2023-04-24T11:43:25.978Z,23.86
2023-04-24T11:46:49.854Z,23.65
2023-04-24T11:50:16.241Z,23.44
2023-04-24T11:53:42.206Z,23.30
2023-04-24T11:57:08.756Z,23.49
2023-04-24T12:00:35.308Z,23.74
2023-04-24T12:04:02.598Z,23.95
2023-04-24T12:07:26.687Z,24.14
2023-04-24T12:10:53.366Z,24.29
2023-04-24T12:14:17.247Z,24.39
2023-04-24T12:17:44.147Z,24.35
2023-04-24T12:21:23.115Z,24.22
2023-04-24T12:25:07.056Z,24.14
2023-04-24T12:28:39.857Z,24.28
2023-04-24T12:32:03.922Z,24.51
2023-04-24T12:35:30.892Z,24.67
2023-04-24T12:38:55.504Z,24.81
2023-04-24T12:42:31.810Z,24.96
2023-04-24T12:45:55.795Z,25.10
2023-04-24T12:49:19.765Z,25.15
2023-04-24T12:52:45.384Z,25.27
2023-04-24T12:56:09.265Z,25.35
2023-04-24T12:59:33.273Z,25.50
2023-04-24T13:02:57.377Z,25.68
2023-04-24T13:06:22.396Z,25.74
2023-04-24T13:09:46.432Z,25.43
2023-04-24T13:13:10.954Z,25.33
2023-04-24T13:16:34.970Z,25.45
2023-04-24T13:19:58.828Z,25.58
2023-04-24T13:23:24.227Z,25.72
2023-04-24T13:26:48.277Z,25.70
2023-04-24T13:30:12.711Z,25.56
2023-04-24T13:33:57.233Z,25.52
2023-04-24T13:37:56.125Z,25.54
2023-04-24T13:41:55.271Z,25.22
2023-04-24T13:45:53.272Z,25.16
2023-04-24T13:49:51.195Z,25.30
2023-04-24T13:53:49.125Z,25.53
2023-04-24T13:57:47.259Z,25.66
2023-04-24T14:01:45.158Z,25.78
2023-04-24T14:05:43.159Z,25.83
2023-04-24T14:09:41.116Z,25.76
2023-04-24T14:13:39.145Z,25.52
2023-04-24T14:17:37.181Z,25.28
2023-04-24T14:21:35.108Z,25.00
2023-04-24T14:25:33.106Z,24.75
2023-04-24T14:29:35.288Z,24.67
2023-04-24T14:33:33.176Z,24.28
2023-04-24T14:37:31.151Z,23.99
2023-04-24T14:41:29.098Z,23.72
2023-04-24T14:45:27.210Z,23.46
2023-04-24T14:49:26.111Z,23.13
2023-04-24T14:53:24.147Z,22.76
2023-04-24T14:57:16.476Z,22.50
2023-04-24T15:01:14.188Z,22.63
2023-04-24T15:05:12.473Z,23.06
2023-04-24T15:09:10.074Z,23.58
2023-04-24T15:13:08.159Z,23.97
2023-04-24T15:17:06.308Z,24.21
2023-04-24T15:21:04.034Z,24.34
2023-04-24T15:25:02.181Z,24.47
2023-04-24T15:29:00.058Z,24.44
2023-04-24T15:32:58.265Z,24.48
2023-04-24T15:37:03.091Z,24.76
2023-04-24T15:41:01.137Z,24.97
2023-04-24T15:44:59.044Z,25.10
2023-04-24T15:49:00.185Z,25.05
2023-04-24T15:52:58.044Z,25.03
2023-04-24T15:56:56.147Z,24.85
2023-04-24T16:00:53.984Z,24.79
2023-04-24T16:04:52.215Z,24.78
2023-04-24T16:08:51.103Z,24.31
2023-04-24T16:12:49.065Z,23.63
2023-04-24T16:16:46.984Z,22.89
2023-04-24T16:20:45.079Z,22.26
2023-04-24T16:24:42.987Z,21.81
2023-04-24T16:28:41.101Z,21.47
2023-04-24T16:32:38.999Z,21.21
2023-04-24T16:36:38.187Z,20.95
2023-04-24T16:40:35.963Z,20.70
2023-04-24T16:44:33.990Z,20.46
2023-04-24T16:48:32.013Z,20.25
2023-04-24T16:52:31.036Z,20.09
2023-04-24T16:56:29.008Z,19.93
2023-04-24T17:00:28.008Z,19.75
2023-04-24T17:04:26.304Z,19.55
2023-04-24T17:08:25.000Z,19.35
2023-04-24T17:12:24.201Z,19.17
2023-04-24T17:16:22.017Z,19.00
2023-04-24T17:20:23.334Z,18.84
2023-04-24T17:24:22.498Z,18.67
2023-04-24T17:28:35.931Z,18.49
2023-04-24T17:32:33.956Z,18.31
2023-04-24T17:36:31.953Z,18.14
2023-04-24T17:40:30.016Z,17.96
2023-04-24T17:44:27.901Z,17.82
2023-04-24T17:48:27.002Z,17.68
2023-04-24T17:52:24.982Z,17.55
2023-04-24T17:56:22.972Z,17.42
2023-04-24T18:00:21.934Z,17.29
2023-04-24T18:04:20.261Z,17.16
2023-04-24T18:08:20.102Z,17.03
2023-04-24T18:12:18.044Z,16.89
2023-04-24T18:16:15.918Z,16.76
2023-04-24T18:20:14.003Z,16.65
2023-04-24T18:24:11.984Z,16.54
2023-04-24T18:28:09.953Z,16.44
2023-04-24T18:32:07.939Z,16.37
2023-04-24T18:36:05.939Z,16.32
2023-04-24T18:39:57.143Z,16.27
2023-04-24T18:43:54.912Z,16.22
2023-04-24T18:47:52.930Z,16.19
2023-04-24T18:51:54.345Z,16.15
2023-04-24T18:55:52.845Z,16.13
2023-04-24T18:59:50.903Z,16.09
2023-04-24T19:03:50.120Z,16.04
2023-04-24T19:07:48.926Z,15.99
2023-04-24T19:11:47.879Z,15.96
2023-04-24T19:15:46.813Z,15.94
2023-04-24T19:19:45.810Z,15.94
2023-04-24T19:23:45.959Z,15.94
2023-04-24T19:27:43.840Z,15.93
2023-04-24T19:31:44.968Z,15.90
2023-04-24T19:35:48.900Z,15.85
2023-04-24T19:39:46.836Z,15.79
2023-04-24T19:43:44.783Z,15.72
2023-04-24T19:47:42.948Z,15.64
2023-04-24T19:51:40.789Z,15.56
2023-04-24T19:55:38.807Z,15.49
2023-04-24T19:59:36.789Z,15.43
2023-04-24T20:03:35.205Z,15.37
2023-04-24T20:07:32.841Z,15.32
2023-04-24T20:11:30.822Z,15.28
2023-04-24T20:15:28.809Z,15.25
2023-04-24T20:19:26.832Z,15.24
2023-04-24T20:23:24.767Z,15.22
2023-04-24T20:27:22.865Z,15.12
2023-04-24T20:31:20.805Z,15.01
2023-04-24T20:35:18.755Z,14.97
2023-04-24T20:39:16.731Z,14.97
2023-04-24T20:43:14.862Z,14.96
2023-04-24T20:47:12.663Z,14.92
2023-04-24T20:51:10.716Z,14.89
2023-04-24T20:55:08.854Z,14.86
2023-04-24T20:59:06.777Z,14.83
2023-04-24T21:03:04.842Z,14.77
2023-04-24T21:07:02.744Z,14.69
2023-04-24T21:11:00.712Z,14.59
2023-04-24T21:14:58.748Z,14.47
2023-04-24T21:18:56.721Z,14.35
2023-04-24T21:22:54.702Z,14.21
2023-04-24T21:26:53.755Z,14.08
2023-04-24T21:30:51.733Z,13.95
2023-04-24T21:34:49.742Z,13.82
2023-04-24T21:38:47.687Z,13.69
2023-04-24T21:42:45.667Z,13.56
2023-04-24T21:46:43.924Z,13.44
2023-04-24T21:50:41.760Z,13.34
2023-04-24T21:54:39.703Z,13.24
2023-04-24T21:58:37.703Z,13.15
2023-04-24T22:02:35.898Z,13.08
2023-04-24T22:06:33.752Z,13.02
2023-04-24T22:10:32.645Z,12.95
2023-04-24T22:14:31.752Z,12.88
2023-04-24T22:18:40.055Z,12.80
2023-04-24T22:22:44.621Z,12.71
2023-04-24T22:26:42.694Z,12.64
2023-04-24T22:30:40.677Z,12.56
2023-04-24T22:34:38.757Z,12.49
2023-04-24T22:38:36.602Z,12.44
2023-04-24T22:42:34.602Z,12.41
2023-04-24T22:46:32.550Z,12.41
2023-04-24T22:50:30.655Z,12.38
2023-04-24T22:54:29.934Z,12.40
2023-04-24T22:58:27.641Z,12.50
2023-04-24T23:02:25.706Z,12.60
2023-04-24T23:06:24.550Z,12.72
2023-04-24T23:10:22.556Z,12.84
2023-04-24T23:14:20.584Z,12.96
2023-04-24T23:18:18.651Z,13.07
2023-04-24T23:22:16.547Z,13.16
2023-04-24T23:26:14.570Z,13.21
2023-04-24T23:30:13.525Z,13.23
2023-04-24T23:34:11.601Z,13.25
2023-04-24T23:38:09.589Z,13.26
2023-04-24T23:42:09.510Z,13.25
2023-04-24T23:46:07.576Z,13.26
2023-04-24T23:50:05.492Z,13.25
2023-04-24T23:54:03.545Z,13.24
2023-04-24T23:58:01.534Z,13.21
